Time;durP1;ratioP1;P1;durP2;ratioP2;P2;SDS_P1;SDS_P2;PMS_P1;PMS_P2;Temp;Humidity;BMP_temperature;BMP_pressure;BME280_temperature;BME280_humidity;BME280_pressure;Samples;Min_cycle;Max_cycle;Signal;HPM_P1;HPM_P2
2023/12/02 00:00:03;;;;;;;7.05;4.63;;;;;;;;;;6279511;22;20254;-78
2023/12/02 00:02:32;;;;;;;5.10;4.20;;;;;;;;;;6279640;22;20186;-77
2023/12/02 00:05:00;;;;;;;6.47;4.68;;;;;;;;;;6280025;22;20279;-78
2023/12/02 00:07:27;;;;;;;4.15;3.65;;;;;;;;;;6279828;22;20238;-78
2023/12/02 00:09:55;;;;;;;3.60;3.30;;;;;;;;;;6279241;22;20255;-78
2023/12/02 00:12:22;;;;;;;5.05;3.65;;;;;;;;;;6279081;22;20251;-78
2023/12/02 00:14:50;;;;;;;4.45;4.03;;;;;;;;;;6279756;22;20271;-78
2023/12/02 00:17:17;;;;;;;3.85;3.55;;;;;;;;;;6279733;22;20255;-78
2023/12/02 00:19:46;;;;;;;4.95;3.72;;;;;;;;;;6279052;22;20192;-78
2023/12/02 00:22:15;;;;;;;4.03;3.58;;;;;;;;;;6279223;22;20184;-78
2023/12/02 00:24:43;;;;;;;4.63;4.00;;;;;;;;;;6279706;22;20236;-78
2023/12/02 00:27:10;;;;;;;4.78;3.72;;;;;;;;;;6278932;22;20255;-78
2023/12/02 00:29:37;;;;;;;4.88;4.38;;;;;;;;;;6278739;22;20189;-77
2023/12/02 00:32:06;;;;;;;4.05;3.30;;;;;;;;;;6279974;22;20255;-78
2023/12/02 00:34:33;;;;;;;4.82;4.18;;;;;;;;;;6279532;22;20207;-78
2023/12/02 00:37:02;;;;;;;2.92;2.72;;;;;;;;;;6279135;22;20223;-77
2023/12/02 00:39:29;;;;;;;3.97;3.50;;;;;;;;;;6280365;22;20270;-78
2023/12/02 00:41:57;;;;;;;4.95;3.60;;;;;;;;;;6282083;22;20578;-78
2023/12/02 00:44:24;;;;;;;5.40;3.85;;;;;;;;;;6281520;22;20275;-78
2023/12/02 00:46:52;;;;;;;4.97;3.80;;;;;;;;;;6281488;22;20215;-78
2023/12/02 00:49:19;;;;;;;4.65;4.25;;;;;;;;;;6281773;22;20228;-78
2023/12/02 00:51:47;;;;;;;4.75;4.25;;;;;;;;;;6281845;22;20271;-78
2023/12/02 00:54:15;;;;;;;6.50;4.57;;;;;;;;;;6281414;22;20252;-78
2023/12/02 00:56:43;;;;;;;4.70;4.22;;;;;;;;;;6281573;22;20255;-78
2023/12/02 00:59:10;;;;;;;4.95;4.18;;;;;;;;;;6281603;22;20279;-78
2023/12/02 01:01:38;;;;;;;6.55;4.88;;;;;;;;;;6281103;22;20255;-78
2023/12/02 01:04:05;;;;;;;5.70;5.20;;;;;;;;;;6281148;22;20597;-78
2023/12/02 01:06:33;;;;;;;5.53;4.57;;;;;;;;;;6282151;22;20204;-78
2023/12/02 01:09:00;;;;;;;6.15;4.85;;;;;;;;;;6281096;22;20196;-78
2023/12/02 01:11:29;;;;;;;5.43;4.68;;;;;;;;;;6280923;22;20200;-78
2023/12/02 01:13:56;;;;;;;5.60;4.07;;;;;;;;;;6281693;22;20247;-78
2023/12/02 01:16:24;;;;;;;5.13;4.50;;;;;;;;;;6281150;22;20247;-78
2023/12/02 01:18:51;;;;;;;5.00;4.50;;;;;;;;;;6280479;22;20199;-78
2023/12/02 01:21:19;;;;;;;3.90;3.42;;;;;;;;;;6280503;22;20546;-78
2023/12/02 01:23:46;;;;;;;4.95;4.30;;;;;;;;;;6280487;22;20202;-78
2023/12/02 01:26:14;;;;;;;6.60;5.15;;;;;;;;;;6280144;22;20207;-78
2023/12/02 01:28:43;;;;;;;5.18;4.55;;;;;;;;;;6280641;22;20710;-78
2023/12/02 01:31:10;;;;;;;5.93;5.30;;;;;;;;;;6280872;22;20184;-78
2023/12/02 01:33:38;;;;;;;5.90;5.30;;;;;;;;;;6280732;22;20172;-77
2023/12/02 01:36:06;;;;;;;6.90;5.90;;;;;;;;;;6280348;22;20263;-77
2023/12/02 01:38:34;;;;;;;6.25;5.35;;;;;;;;;;6280611;22;20231;-78
2023/12/02 01:41:01;;;;;;;7.75;5.65;;;;;;;;;;6280431;22;20555;-78
2023/12/02 01:43:29;;;;;;;6.43;5.78;;;;;;;;;;6281337;22;20515;-78
2023/12/02 01:45:58;;;;;;;6.43;5.80;;;;;;;;;;6280641;22;20173;-78
2023/12/02 01:48:29;;;;;;;7.05;5.78;;;;;;;;;;6280673;22;20252;-78
2023/12/02 01:50:57;;;;;;;8.07;6.22;;;;;;;;;;6280096;22;20195;-78
2023/12/02 01:53:25;;;;;;;6.50;5.45;;;;;;;;;;6280968;22;20212;-78
2023/12/02 01:55:52;;;;;;;7.20;5.78;;;;;;;;;;6280112;22;20647;-78
2023/12/02 01:58:20;;;;;;;6.90;5.82;;;;;;;;;;6280517;22;20196;-78
2023/12/02 02:00:48;;;;;;;7.10;6.35;;;;;;;;;;6281342;22;20203;-77
2023/12/02 02:03:17;;;;;;;7.50;6.32;;;;;;;;;;6280402;22;20267;-78
2023/12/02 02:05:45;;;;;;;7.28;5.45;;;;;;;;;;6280534;22;20255;-78
2023/12/02 02:08:12;;;;;;;5.63;5.05;;;;;;;;;;6280400;22;20200;-78
2023/12/02 02:10:40;;;;;;;7.13;5.43;;;;;;;;;;6279725;22;20204;-78
2023/12/02 02:13:07;;;;;;;6.10;5.07;;;;;;;;;;6279910;22;20251;-78
2023/12/02 02:15:35;;;;;;;6.80;4.75;;;;;;;;;;6280631;22;20232;-77
2023/12/02 02:18:02;;;;;;;5.57;4.70;;;;;;;;;;6280634;22;20256;-78
2023/12/02 02:20:31;;;;;;;6.13;5.50;;;;;;;;;;6279984;22;20173;-78
2023/12/02 02:23:00;;;;;;;5.18;4.68;;;;;;;;;;6279052;22;20725;-78
2023/12/02 02:25:27;;;;;;;7.25;5.10;;;;;;;;;;6279256;22;20192;-78
2023/12/02 02:27:55;;;;;;;5.30;4.75;;;;;;;;;;6279168;22;20248;-78
2023/12/02 02:30:24;;;;;;;6.03;5.22;;;;;;;;;;6279858;22;20256;-78
2023/12/02 02:32:52;;;;;;;5.80;4.50;;;;;;;;;;6279997;22;20172;-78
2023/12/02 02:35:19;;;;;;;5.30;4.60;;;;;;;;;;6279645;22;20172;-78
2023/12/02 02:37:47;;;;;;;6.35;4.25;;;;;;;;;;6279131;22;20688;-78
2023/12/02 02:40:16;;;;;;;5.10;4.10;;;;;;;;;;6279490;22;20200;-78
2023/12/02 02:42:43;;;;;;;6.03;5.10;;;;;;;;;;6279088;22;20251;-78
2023/12/02 02:45:11;;;;;;;5.43;4.43;;;;;;;;;;6279311;22;20260;-78
2023/12/02 02:47:39;;;;;;;4.43;3.78;;;;;;;;;;6279845;22;20172;-78
2023/12/02 02:50:08;;;;;;;6.22;4.80;;;;;;;;;;6279167;22;20255;-78
2023/12/02 02:52:35;;;;;;;5.25;4.75;;;;;;;;;;6278991;22;20661;-78
2023/12/02 02:55:04;;;;;;;5.13;4.55;;;;;;;;;;6279649;22;20228;-78
2023/12/02 02:57:33;;;;;;;7.43;5.00;;;;;;;;;;6279602;22;20194;-78
2023/12/02 03:00:00;;;;;;;5.53;4.60;;;;;;;;;;6278868;22;20237;-77
2023/12/02 03:02:28;;;;;;;6.45;5.15;;;;;;;;;;6278668;22;20191;-78
2023/12/02 03:04:55;;;;;;;4.38;3.97;;;;;;;;;;6279699;22;20196;-78
2023/12/02 03:07:23;;;;;;;3.55;3.25;;;;;;;;;;6279384;22;20645;-78
2023/12/02 03:09:50;;;;;;;4.50;4.07;;;;;;;;;;6279447;22;20192;-78
2023/12/02 03:12:17;;;;;;;5.22;4.43;;;;;;;;;;6279340;22;20183;-78
2023/12/02 03:14:45;;;;;;;5.50;4.63;;;;;;;;;;6279469;22;20172;-78
2023/12/02 03:17:13;;;;;;;4.93;4.53;;;;;;;;;;6280229;22;20255;-78
2023/12/02 03:19:40;;;;;;;5.55;4.72;;;;;;;;;;6278919;22;20196;-77
2023/12/02 03:22:08;;;;;;;5.32;4.70;;;;;;;;;;6279000;22;20263;-78
2023/12/02 03:24:35;;;;;;;6.22;4.95;;;;;;;;;;6279662;22;20244;-78
2023/12/02 03:27:03;;;;;;;5.25;4.25;;;;;;;;;;6279351;22;20177;-78
2023/12/02 03:29:30;;;;;;;7.47;4.85;;;;;;;;;;6279727;22;20272;-78
2023/12/02 03:31:59;;;;;;;5.75;5.25;;;;;;;;;;6279725;22;20258;-78
2023/12/02 03:34:26;;;;;;;4.40;3.75;;;;;;;;;;6280184;22;20266;-78
2023/12/02 03:36:54;;;;;;;4.47;4.07;;;;;;;;;;6279924;22;20196;-78
2023/12/02 03:39:21;;;;;;;3.95;3.28;;;;;;;;;;6279193;22;20267;-78
2023/12/02 03:41:49;;;;;;;4.05;3.50;;;;;;;;;;6279718;22;20194;-78
2023/12/02 03:44:16;;;;;;;3.88;3.15;;;;;;;;;;6279393;22;20185;-78
2023/12/02 03:46:44;;;;;;;4.68;4.18;;;;;;;;;;6278891;22;20235;-78
2023/12/02 03:49:13;;;;;;;4.22;3.28;;;;;;;;;;6279631;22;20525;-78
2023/12/02 03:51:41;;;;;;;5.00;4.38;;;;;;;;;;6279520;22;20172;-78
2023/12/02 03:54:08;;;;;;;4.28;3.83;;;;;;;;;;6279339;22;20176;-78
2023/12/02 03:56:36;;;;;;;5.75;3.95;;;;;;;;;;6279241;22;20204;-78
2023/12/02 03:59:03;;;;;;;4.72;3.58;;;;;;;;;;6279064;22;20267;-78
2023/12/02 04:01:31;;;;;;;5.25;3.75;;;;;;;;;;6279141;22;20204;-78
2023/12/02 04:03:58;;;;;;;4.18;3.78;;;;;;;;;;6278849;22;20182;-78
2023/12/02 04:06:27;;;;;;;3.90;3.50;;;;;;;;;;6279005;22;20203;-78
2023/12/02 04:08:55;;;;;;;5.35;3.70;;;;;;;;;;6279078;22;20207;-78
2023/12/02 04:11:22;;;;;;;4.07;3.60;;;;;;;;;;6279490;22;20176;-78
2023/12/02 04:13:50;;;;;;;4.22;3.35;;;;;;;;;;6279463;22;20164;-77
2023/12/02 04:16:17;;;;;;;4.20;3.72;;;;;;;;;;6281665;22;20256;-78
2023/12/02 04:18:45;;;;;;;4.50;3.92;;;;;;;;;;6281008;22;20220;-78
2023/12/02 04:21:12;;;;;;;3.75;3.42;;;;;;;;;;6281206;22;20176;-78
2023/12/02 04:23:41;;;;;;;3.97;3.58;;;;;;;;;;6280172;22;20262;-78
2023/12/02 04:26:08;;;;;;;3.10;2.80;;;;;;;;;;6281628;22;20278;-78
2023/12/02 04:28:36;;;;;;;4.45;4.05;;;;;;;;;;6280663;22;20195;-78
2023/12/02 04:31:04;;;;;;;3.47;3.17;;;;;;;;;;6281363;22;20675;-78
2023/12/02 04:33:31;;;;;;;5.07;3.25;;;;;;;;;;6280017;22;20172;-78
2023/12/02 04:35:59;;;;;;;5.25;3.42;;;;;;;;;;6280900;22;20255;-78
2023/12/02 04:38:26;;;;;;;5.32;4.15;;;;;;;;;;6280476;22;20219;-78
2023/12/02 04:40:55;;;;;;;3.70;3.20;;;;;;;;;;6280843;22;20204;-78
2023/12/02 04:43:22;;;;;;;3.33;3.03;;;;;;;;;;6281417;22;20547;-78
2023/12/02 04:45:50;;;;;;;3.63;3.33;;;;;;;;;;6280743;22;20235;-77
2023/12/02 04:48:18;;;;;;;3.75;3.42;;;;;;;;;;6280459;22;20200;-78
2023/12/02 04:50:45;;;;;;;4.20;3.30;;;;;;;;;;6281569;22;20571;-78
2023/12/02 04:53:13;;;;;;;5.45;3.80;;;;;;;;;;6280848;22;20261;-78
2023/12/02 04:55:40;;;;;;;4.55;3.65;;;;;;;;;;6281177;22;20172;-78
2023/12/02 04:58:09;;;;;;;4.35;3.42;;;;;;;;;;6280853;22;20279;-77
2023/12/02 05:00:37;;;;;;;3.95;3.50;;;;;;;;;;6281105;22;20648;-78
2023/12/02 05:03:05;;;;;;;2.53;2.33;;;;;;;;;;6280244;22;20495;-78
2023/12/02 05:05:33;;;;;;;4.70;2.80;;;;;;;;;;6279997;22;20177;-78
2023/12/02 05:08:00;;;;;;;3.42;3.13;;;;;;;;;;6281103;22;20200;-78
2023/12/02 05:10:28;;;;;;;3.00;2.70;;;;;;;;;;6280297;22;20258;-78
2023/12/02 05:12:55;;;;;;;2.83;2.63;;;;;;;;;;6280335;22;20172;-78
2023/12/02 05:15:24;;;;;;;3.83;3.42;;;;;;;;;;6280344;22;20259;-78
2023/12/02 05:17:52;;;;;;;3.97;3.40;;;;;;;;;;6280338;22;20246;-78
2023/12/02 05:20:20;;;;;;;2.97;2.67;;;;;;;;;;6280034;22;20177;-78
2023/12/02 05:22:48;;;;;;;3.80;3.38;;;;;;;;;;6280559;22;20261;-78
2023/12/02 05:25:15;;;;;;;3.08;2.78;;;;;;;;;;6279074;22;20203;-77
2023/12/02 05:27:43;;;;;;;3.50;3.13;;;;;;;;;;6280478;22;20645;-78
2023/12/02 05:30:14;;;;;;;3.55;2.60;;;;;;;;;;6280032;22;20173;-78
2023/12/02 05:32:43;;;;;;;3.40;2.60;;;;;;;;;;6280807;22;20570;-78
2023/12/02 05:35:11;;;;;;;3.13;2.67;;;;;;;;;;6280752;22;20255;-78
2023/12/02 05:37:39;;;;;;;2.92;2.65;;;;;;;;;;6280770;22;20168;-78
2023/12/02 05:40:10;;;;;;;3.58;3.05;;;;;;;;;;6281027;22;20196;-78
2023/12/02 05:42:38;;;;;;;3.40;3.10;;;;;;;;;;6280254;22;20168;-78
2023/12/02 05:45:07;;;;;;;3.85;3.55;;;;;;;;;;6280777;22;20224;-78
2023/12/02 05:47:34;;;;;;;4.15;3.58;;;;;;;;;;6279691;22;20192;-78
2023/12/02 05:50:03;;;;;;;3.95;3.55;;;;;;;;;;6279990;22;20199;-78
2023/12/02 05:52:31;;;;;;;5.40;3.95;;;;;;;;;;6280019;22;20228;-77
2023/12/02 05:54:58;;;;;;;3.30;3.05;;;;;;;;;;6279720;22;20664;-78
2023/12/02 05:57:26;;;;;;;3.92;3.53;;;;;;;;;;6279944;22;20248;-78
2023/12/02 05:59:53;;;;;;;3.78;2.97;;;;;;;;;;6279855;22;20196;-78
2023/12/02 06:02:21;;;;;;;5.25;4.32;;;;;;;;;;6280046;22;20206;-78
2023/12/02 06:04:48;;;;;;;4.80;4.28;;;;;;;;;;6279601;22;20172;-78
2023/12/02 06:07:17;;;;;;;4.15;3.50;;;;;;;;;;6279205;22;20275;-77
2023/12/02 06:09:44;;;;;;;4.28;3.78;;;;;;;;;;6279189;22;20275;-78
2023/12/02 06:12:12;;;;;;;4.88;4.00;;;;;;;;;;6279158;22;20173;-78
2023/12/02 06:14:40;;;;;;;4.07;3.53;;;;;;;;;;6279467;22;20179;-77
2023/12/02 06:17:08;;;;;;;5.80;4.22;;;;;;;;;;6280013;22;20251;-78
2023/12/02 06:19:36;;;;;;;4.63;4.00;;;;;;;;;;6279998;22;20192;-78
2023/12/02 06:22:04;;;;;;;4.07;3.63;;;;;;;;;;6279537;22;20251;-77
2023/12/02 06:24:32;;;;;;;3.97;3.50;;;;;;;;;;6279601;22;20743;-78
2023/12/02 06:27:00;;;;;;;5.13;4.63;;;;;;;;;;6279676;22;20231;-78
2023/12/02 06:29:28;;;;;;;4.97;4.05;;;;;;;;;;6279940;22;20196;-78
2023/12/02 06:31:55;;;;;;;4.90;4.18;;;;;;;;;;6280503;22;20202;-78
2023/12/02 06:34:22;;;;;;;5.68;5.07;;;;;;;;;;6279711;22;20183;-78
2023/12/02 06:36:50;;;;;;;4.80;4.22;;;;;;;;;;6279690;22;20204;-78
2023/12/02 06:39:17;;;;;;;6.07;5.47;;;;;;;;;;6279287;22;20199;-78
2023/12/02 06:41:46;;;;;;;5.65;4.72;;;;;;;;;;6280666;22;20260;-78
2023/12/02 06:44:13;;;;;;;4.63;4.22;;;;;;;;;;6280112;22;20176;-78
2023/12/02 06:46:42;;;;;;;4.80;4.13;;;;;;;;;;6280080;22;20202;-78
2023/12/02 06:49:09;;;;;;;5.13;4.00;;;;;;;;;;6279774;22;20196;-78
2023/12/02 06:51:37;;;;;;;5.13;3.95;;;;;;;;;;6279473;22;20172;-78
2023/12/02 06:54:04;;;;;;;4.13;3.72;;;;;;;;;;6279565;22;20172;-78
2023/12/02 06:56:32;;;;;;;3.70;3.38;;;;;;;;;;6279940;22;20200;-78
2023/12/02 06:59:00;;;;;;;4.78;3.63;;;;;;;;;;6279147;22;20680;-78
2023/12/02 07:01:29;;;;;;;3.92;3.53;;;;;;;;;;6278876;22;20247;-78
2023/12/02 07:03:58;;;;;;;5.22;4.32;;;;;;;;;;6279620;22;20232;-78
2023/12/02 07:06:26;;;;;;;4.22;3.53;;;;;;;;;;6279631;22;20194;-79
2023/12/02 07:08:54;;;;;;;3.88;3.47;;;;;;;;;;6279260;22;20280;-78
2023/12/02 07:11:22;;;;;;;4.10;3.80;;;;;;;;;;6279357;22;20181;-78
2023/12/02 07:13:50;;;;;;;4.03;3.15;;;;;;;;;;6277270;22;20207;-77
2023/12/02 07:16:19;;;;;;;3.83;3.42;;;;;;;;;;6276760;22;20172;-80
2023/12/02 07:18:46;;;;;;;4.07;3.45;;;;;;;;;;6276503;22;20188;-80
2023/12/02 07:21:14;;;;;;;4.97;3.90;;;;;;;;;;6276379;22;20172;-80
2023/12/02 07:23:42;;;;;;;3.35;3.05;;;;;;;;;;6275916;22;20226;-80
2023/12/02 07:26:10;;;;;;;5.25;3.28;;;;;;;;;;6277147;22;20177;-80
2023/12/02 07:28:37;;;;;;;3.38;3.08;;;;;;;;;;6276376;22;20231;-80
2023/12/02 07:31:05;;;;;;;4.07;3.40;;;;;;;;;;6276686;22;20578;-77
2023/12/02 07:33:34;;;;;;;3.25;2.95;;;;;;;;;;6276752;22;20701;-77
2023/12/02 07:36:01;;;;;;;4.60;3.08;;;;;;;;;;6276139;22;20176;-80
2023/12/02 07:38:29;;;;;;;2.92;2.67;;;;;;;;;;6278308;22;20243;-79
2023/12/02 07:40:56;;;;;;;4.30;3.47;;;;;;;;;;6277604;22;20251;-79
2023/12/02 07:43:23;;;;;;;3.17;2.88;;;;;;;;;;6279131;22;20255;-80
2023/12/02 07:45:51;;;;;;;3.70;3.40;;;;;;;;;;6278125;22;20172;-79
2023/12/02 07:48:19;;;;;;;3.20;2.88;;;;;;;;;;6279574;22;20547;-79
2023/12/02 07:50:47;;;;;;;3.97;3.50;;;;;;;;;;6280068;22;20672;-79
2023/12/02 07:53:14;;;;;;;3.22;2.92;;;;;;;;;;6280094;22;20212;-79
2023/12/02 07:55:41;;;;;;;2.72;2.53;;;;;;;;;;6278704;22;20259;-79
2023/12/02 07:58:09;;;;;;;3.83;2.90;;;;;;;;;;6279486;22;20224;-80
2023/12/02 08:00:37;;;;;;;3.58;3.25;;;;;;;;;;6278329;22;20173;-79
2023/12/02 08:03:04;;;;;;;3.50;3.20;;;;;;;;;;6280266;22;20176;-80
2023/12/02 08:05:32;;;;;;;4.50;3.72;;;;;;;;;;6279664;22;20255;-79
2023/12/02 08:08:01;;;;;;;4.32;3.92;;;;;;;;;;6278815;22;20665;-80
2023/12/02 08:10:28;;;;;;;4.60;4.03;;;;;;;;;;6279093;22;20252;-80
2023/12/02 08:12:56;;;;;;;7.32;4.43;;;;;;;;;;6279580;22;20187;-79
2023/12/02 08:15:23;;;;;;;5.00;3.60;;;;;;;;;;6279406;22;20208;-80
2023/12/02 08:17:50;;;;;;;5.22;4.43;;;;;;;;;;6280195;22;20691;-79
2023/12/02 08:20:18;;;;;;;5.10;4.22;;;;;;;;;;6279990;22;20255;-79
2023/12/02 08:22:45;;;;;;;6.10;4.63;;;;;;;;;;6280125;22;20184;-79
2023/12/02 08:25:14;;;;;;;5.75;5.03;;;;;;;;;;6279515;22;20172;-80
2023/12/02 08:27:42;;;;;;;6.10;4.80;;;;;;;;;;6279865;22;20685;-80
2023/12/02 08:30:10;;;;;;;5.82;5.13;;;;;;;;;;6279223;22;20173;-80
2023/12/02 08:32:38;;;;;;;4.53;4.13;;;;;;;;;;6279275;22;20207;-80
2023/12/02 08:35:07;;;;;;;6.47;5.10;;;;;;;;;;6279975;22;20232;-79
2023/12/02 08:37:34;;;;;;;7.07;5.72;;;;;;;;;;6279343;22;20255;-79
2023/12/02 08:40:02;;;;;;;6.57;5.70;;;;;;;;;;6279036;22;20196;-79
2023/12/02 08:42:31;;;;;;;8.13;6.15;;;;;;;;;;6279218;22;20179;-80
2023/12/02 08:44:58;;;;;;;9.00;6.32;;;;;;;;;;6279971;22;20255;-80
2023/12/02 08:47:26;;;;;;;6.38;5.78;;;;;;;;;;6279798;22;20255;-79
2023/12/02 08:49:54;;;;;;;6.90;5.25;;;;;;;;;;6280583;22;20247;-79
2023/12/02 08:52:22;;;;;;;6.10;5.55;;;;;;;;;;6280120;22;20228;-80
2023/12/02 08:54:49;;;;;;;7.38;5.85;;;;;;;;;;6281988;22;20176;-80
2023/12/02 08:57:17;;;;;;;7.57;6.13;;;;;;;;;;6281238;22;20215;-78
2023/12/02 08:59:46;;;;;;;7.65;6.78;;;;;;;;;;6282381;22;20189;-79
2023/12/02 09:02:13;;;;;;;8.18;6.18;;;;;;;;;;6284345;22;20207;-80
2023/12/02 09:04:41;;;;;;;9.02;8.13;;;;;;;;;;6283145;22;20204;-80
2023/12/02 09:07:08;;;;;;;7.65;6.88;;;;;;;;;;6283577;22;20247;-80
2023/12/02 09:09:35;;;;;;;7.53;6.47;;;;;;;;;;6283473;22;20282;-80
2023/12/02 09:12:03;;;;;;;7.03;5.68;;;;;;;;;;6282791;22;20255;-80
2023/12/02 09:14:31;;;;;;;6.93;5.68;;;;;;;;;;6283877;22;20172;-80
2023/12/02 09:17:00;;;;;;;8.93;6.18;;;;;;;;;;6284045;22;20202;-78
2023/12/02 09:19:54;;;;;;;6.32;5.18;;;;;;;;;;6283415;22;20219;-79
2023/12/02 09:22:47;;;;;;;7.05;6.38;;;;;;;;;;6283625;22;20496;-80
2023/12/02 09:25:29;;;;;;;7.45;6.00;;;;;;;;;;6284509;22;20208;-79
2023/12/02 09:28:26;;;;;;;5.95;5.35;;;;;;;;;;6285263;22;20196;-79
2023/12/02 09:31:06;;;;;;;7.57;6.35;;;;;;;;;;6281846;22;20176;-80
2023/12/02 09:33:35;;;;;;;8.30;6.30;;;;;;;;;;6284166;22;20157;-80
2023/12/02 09:36:04;;;;;;;5.65;5.00;;;;;;;;;;6283418;22;20181;-80
2023/12/02 09:38:34;;;;;;;7.68;6.25;;;;;;;;;;6283524;22;20199;-80
2023/12/02 09:41:36;;;;;;;7.22;4.88;;;;;;;;;;6282993;22;20176;-80
2023/12/02 09:44:18;;;;;;;6.35;4.72;;;;;;;;;;6275431;22;20176;-80
2023/12/02 09:46:56;;;;;;;4.95;3.95;;;;;;;;;;6283266;22;20632;-79
2023/12/02 09:49:53;;;;;;;4.90;4.45;;;;;;;;;;6283609;22;20232;-80
2023/12/02 09:52:53;;;;;;;4.25;3.50;;;;;;;;;;6283977;22;20556;-79
2023/12/02 09:55:29;;;;;;;5.70;4.38;;;;;;;;;;6282481;22;20206;-80
2023/12/02 09:58:10;;;;;;;5.35;4.15;;;;;;;;;;6283326;22;20228;-80
2023/12/02 10:00:48;;;;;;;3.70;3.22;;;;;;;;;;6283574;22;20164;-80
2023/12/02 10:03:48;;;;;;;4.10;3.45;;;;;;;;;;6283955;22;20167;-80
2023/12/02 10:06:32;;;;;;;4.70;4.03;;;;;;;;;;6283780;22;20195;-79
2023/12/02 10:09:07;;;;;;;9.48;6.07;;;;;;;;;;6283404;22;20287;-80
2023/12/02 10:11:43;;;;;;;6.07;5.13;;;;;;;;;;6283255;22;20163;-79
2023/12/02 10:14:11;;;;;;;8.43;6.63;;;;;;;;;;6283342;22;20165;-79
2023/12/02 10:16:42;;;;;;;10.52;8.30;;;;;;;;;;6283561;22;20176;-80
2023/12/02 10:19:16;;;;;;;10.35;8.30;;;;;;;;;;6283662;22;20673;-80
2023/12/02 10:21:47;;;;;;;11.68;8.55;;;;;;;;;;6283205;22;20156;-79
2023/12/02 10:24:16;;;;;;;13.10;8.85;;;;;;;;;;6283408;22;20559;-80
2023/12/02 10:26:57;;;;;;;8.82;6.82;;;;;;;;;;6284134;22;20260;-80
2023/12/02 10:29:33;;;;;;;8.48;7.63;;;;;;;;;;6283031;22;20284;-79
2023/12/02 10:32:09;;;;;;;8.43;6.47;;;;;;;;;;6283800;22;20239;-80
2023/12/02 10:34:47;;;;;;;8.27;7.25;;;;;;;;;;6283791;22;20544;-80
2023/12/02 10:37:16;;;;;;;11.63;7.15;;;;;;;;;;6284086;22;20459;-79
2023/12/02 10:39:46;;;;;;;8.27;6.95;;;;;;;;;;6284214;22;20244;-80
2023/12/02 10:42:21;;;;;;;8.18;6.05;;;;;;;;;;6283742;22;20164;-80
2023/12/02 10:44:50;;;;;;;8.63;6.93;;;;;;;;;;6282685;22;20462;-80
2023/12/02 10:47:18;;;;;;;8.25;6.40;;;;;;;;;;6280853;22;20204;-80
2023/12/02 10:49:45;;;;;;;8.77;6.97;;;;;;;;;;6281993;22;20260;-78
2023/12/02 10:52:16;;;;;;;7.32;6.00;;;;;;;;;;6280077;22;20200;-80
2023/12/02 10:54:50;;;;;;;7.38;6.13;;;;;;;;;;6283060;22;20160;-80
2023/12/02 10:57:19;;;;;;;7.20;5.45;;;;;;;;;;6279393;22;20160;-78
2023/12/02 10:59:55;;;;;;;9.30;6.90;;;;;;;;;;6278052;22;20271;-77
2023/12/02 11:02:30;;;;;;;8.38;7.22;;;;;;;;;;6279294;22;20152;-80
2023/12/02 11:05:16;;;;;;;7.70;5.85;;;;;;;;;;6279648;22;20157;-80
2023/12/02 11:07:49;;;;;;;8.07;6.72;;;;;;;;;;6279269;22;20160;-77
2023/12/02 11:10:29;;;;;;;8.63;6.10;;;;;;;;;;6278882;22;20180;-80
2023/12/02 11:13:03;;;;;;;10.38;7.43;;;;;;;;;;6278208;22;20168;-78
2023/12/02 11:15:31;;;;;;;7.78;6.38;;;;;;;;;;6282517;22;20165;-79
2023/12/02 11:18:04;;;;;;;8.57;7.25;;;;;;;;;;6279899;22;20216;-79
2023/12/02 11:20:42;;;;;;;10.25;7.65;;;;;;;;;;6281534;22;20156;-79
2023/12/02 11:23:31;;;;;;;9.80;8.32;;;;;;;;;;6281948;22;20235;-80
2023/12/02 11:26:17;;;;;;;11.75;8.88;;;;;;;;;;6281763;22;20199;-79
2023/12/02 11:28:58;;;;;;;11.60;8.52;;;;;;;;;;6283140;22;20224;-80
2023/12/02 11:31:39;;;;;;;11.65;8.95;;;;;;;;;;6283604;22;20180;-80
2023/12/02 11:34:20;;;;;;;9.80;7.70;;;;;;;;;;6283191;22;20199;-78
2023/12/02 11:36:55;;;;;;;13.07;9.10;;;;;;;;;;6282790;22;20574;-80
2023/12/02 11:39:34;;;;;;;9.88;7.90;;;;;;;;;;6282915;22;20215;-80
2023/12/02 11:42:13;;;;;;;11.38;8.43;;;;;;;;;;6282509;22;20192;-80
2023/12/02 11:44:55;;;;;;;11.50;7.97;;;;;;;;;;6283828;22;20594;-80
2023/12/02 11:47:33;;;;;;;12.48;9.68;;;;;;;;;;6282037;22;20210;-80
2023/12/02 11:50:23;;;;;;;13.63;8.73;;;;;;;;;;6282988;22;20218;-80
2023/12/02 11:53:21;;;;;;;12.73;8.57;;;;;;;;;;6284173;22;20164;-78
2023/12/02 11:55:56;;;;;;;13.35;10.10;;;;;;;;;;6282201;22;20177;-79
2023/12/02 11:58:28;;;;;;;10.63;8.60;;;;;;;;;;6284044;22;20202;-80
2023/12/02 12:01:08;;;;;;;14.32;10.43;;;;;;;;;;6283523;22;20208;-80
2023/12/02 12:03:48;;;;;;;13.23;9.80;;;;;;;;;;6283231;22;20670;-78
2023/12/02 12:06:32;;;;;;;13.02;9.40;;;;;;;;;;6284602;22;20605;-80
2023/12/02 12:09:09;;;;;;;11.55;8.27;;;;;;;;;;6284498;22;20275;-80
2023/12/02 12:11:39;;;;;;;12.35;9.57;;;;;;;;;;6284137;22;20211;-80
2023/12/02 12:14:08;;;;;;;14.60;9.45;;;;;;;;;;6284099;22;20180;-80
2023/12/02 12:16:35;;;;;;;12.27;8.77;;;;;;;;;;6284293;22;20251;-80
2023/12/02 12:19:03;;;;;;;11.93;8.13;;;;;;;;;;6283743;22;20252;-79
2023/12/02 12:21:30;;;;;;;14.15;9.43;;;;;;;;;;6283891;22;20247;-79
2023/12/02 12:23:57;;;;;;;16.05;11.00;;;;;;;;;;6283221;22;20587;-78
2023/12/02 12:26:25;;;;;;;10.48;9.18;;;;;;;;;;6284407;22;20257;-78
2023/12/02 12:28:54;;;;;;;12.15;9.57;;;;;;;;;;6283806;22;20744;-79
2023/12/02 12:31:21;;;;;;;12.73;9.75;;;;;;;;;;6282792;22;20279;-79
2023/12/02 12:33:52;;;;;;;11.73;9.48;;;;;;;;;;6283422;22;20245;-79
2023/12/02 12:36:26;;;;;;;12.02;8.50;;;;;;;;;;6286831;22;20163;-78
2023/12/02 12:38:56;;;;;;;14.57;10.13;;;;;;;;;;6285455;22;20191;-78
2023/12/02 12:41:25;;;;;;;12.75;9.63;;;;;;;;;;6286079;22;20231;-78
2023/12/02 12:43:54;;;;;;;13.25;9.85;;;;;;;;;;6285717;22;20517;-77
2023/12/02 12:46:22;;;;;;;14.68;10.02;;;;;;;;;;6284920;22;20235;-77
2023/12/02 12:48:51;;;;;;;13.55;10.77;;;;;;;;;;6285206;22;20661;-78
2023/12/02 12:51:20;;;;;;;10.85;8.90;;;;;;;;;;6284904;22;20196;-77
2023/12/02 12:53:58;;;;;;;12.35;9.73;;;;;;;;;;6285376;22;20373;-77
2023/12/02 12:56:38;;;;;;;13.30;9.73;;;;;;;;;;6285672;22;20184;-78
2023/12/02 12:59:11;;;;;;;14.32;10.75;;;;;;;;;;6285565;22;20195;-80
2023/12/02 13:01:48;;;;;;;13.93;10.65;;;;;;;;;;6286073;22;20161;-78
2023/12/02 13:04:25;;;;;;;12.85;9.82;;;;;;;;;;6284272;22;20212;-80
2023/12/02 13:07:02;;;;;;;14.93;10.30;;;;;;;;;;6285898;22;20239;-80
2023/12/02 13:09:33;;;;;;;12.88;10.55;;;;;;;;;;6285172;22;20220;-79
2023/12/02 13:12:13;;;;;;;13.23;10.35;;;;;;;;;;6283339;22;20176;-80
2023/12/02 13:14:48;;;;;;;15.55;9.48;;;;;;;;;;6281989;22;20163;-80
2023/12/02 13:17:16;;;;;;;12.32;9.25;;;;;;;;;;6283791;22;20179;-80
2023/12/02 13:19:45;;;;;;;12.18;9.90;;;;;;;;;;6285443;22;20681;-79
2023/12/02 13:22:13;;;;;;;12.15;9.68;;;;;;;;;;6285210;22;20252;-80
2023/12/02 13:24:45;;;;;;;13.73;10.23;;;;;;;;;;6281279;22;20597;-79
2023/12/02 13:27:18;;;;;;;14.52;10.38;;;;;;;;;;6282538;22;20195;-79
2023/12/02 13:29:49;;;;;;;12.20;9.23;;;;;;;;;;6283222;22;20247;-79
2023/12/02 13:32:16;;;;;;;19.92;14.50;;;;;;;;;;6282914;22;20199;-79
2023/12/02 13:34:50;;;;;;;11.02;9.00;;;;;;;;;;6279187;22;20255;-79
2023/12/02 13:37:27;;;;;;;11.93;9.82;;;;;;;;;;6282840;22;20216;-79
2023/12/02 13:39:57;;;;;;;11.13;9.23;;;;;;;;;;6280298;22;20275;-79
2023/12/02 13:42:28;;;;;;;11.57;8.02;;;;;;;;;;6279367;22;20207;-79
2023/12/02 13:45:10;;;;;;;13.65;9.40;;;;;;;;;;6284087;22;20157;-79
2023/12/02 13:47:50;;;;;;;9.50;8.13;;;;;;;;;;6283152;22;20184;-79
2023/12/02 13:50:20;;;;;;;12.40;10.10;;;;;;;;;;6283341;22;20168;-80
2023/12/02 13:52:57;;;;;;;14.18;10.13;;;;;;;;;;6283378;22;20256;-78
2023/12/02 13:55:59;;;;;;;11.77;7.95;;;;;;;;;;6282877;22;20184;-78
2023/12/02 13:58:36;;;;;;;13.07;8.23;;;;;;;;;;6263739;22;20192;-76
2023/12/02 14:01:08;;;;;;;11.27;8.15;;;;;;;;;;6278298;22;20188;-77
2023/12/02 14:03:50;;;;;;;13.57;10.35;;;;;;;;;;6279553;22;20164;-78
2023/12/02 14:06:21;;;;;;;11.35;9.27;;;;;;;;;;6280382;22;20168;-79
2023/12/02 14:08:55;;;;;;;12.68;9.68;;;;;;;;;;6278336;22;20231;-77
2023/12/02 14:11:34;;;;;;;12.55;10.30;;;;;;;;;;6279304;22;20180;-79
2023/12/02 14:14:18;;;;;;;12.68;9.70;;;;;;;;;;6282257;22;20167;-79
2023/12/02 14:16:56;;;;;;;12.13;9.18;;;;;;;;;;6282355;22;20485;-80
2023/12/02 14:19:47;;;;;;;11.38;8.75;;;;;;;;;;6281443;22;20216;-78
2023/12/02 14:22:37;;;;;;;12.25;8.80;;;;;;;;;;6282365;22;20633;-79
2023/12/02 14:25:39;;;;;;;13.98;9.50;;;;;;;;;;6283112;22;20239;-79
2023/12/02 14:28:29;;;;;;;12.27;9.25;;;;;;;;;;6275183;22;20255;-79
2023/12/02 14:31:18;;;;;;;11.82;9.32;;;;;;;;;;6283801;22;20188;-79
2023/12/02 14:34:11;;;;;;;13.05;9.77;;;;;;;;;;6283318;22;20161;-80
2023/12/02 14:37:02;;;;;;;12.70;9.40;;;;;;;;;;6282291;22;20200;-78
2023/12/02 14:39:46;;;;;;;10.52;8.40;;;;;;;;;;6280923;22;20667;-80
2023/12/02 14:42:20;;;;;;;13.40;9.55;;;;;;;;;;6283473;22;20157;-79
2023/12/02 14:44:48;;;;;;;12.95;9.55;;;;;;;;;;6283744;22;20160;-80
2023/12/02 14:47:16;;;;;;;11.98;8.60;;;;;;;;;;6282994;22;20200;-80
2023/12/02 14:49:46;;;;;;;9.45;7.75;;;;;;;;;;6282678;22;20192;-79
2023/12/02 14:52:14;;;;;;;10.20;8.07;;;;;;;;;;6282279;22;20192;-78
2023/12/02 14:54:43;;;;;;;12.23;8.18;;;;;;;;;;6282269;22;20200;-78
2023/12/02 14:57:16;;;;;;;10.07;7.63;;;;;;;;;;6283221;22;20180;-79
2023/12/02 14:59:46;;;;;;;10.05;7.10;;;;;;;;;;6282763;22;20228;-79